createdAt,value
2022-12-18T00:02:04.826Z,16.23
2022-12-18T00:05:11.749Z,17.03
2022-12-18T00:08:29.508Z,16.83
2022-12-18T00:11:51.491Z,14.80
2022-12-18T00:15:14.557Z,16.38
2022-12-18T00:18:37.916Z,15.63
2022-12-18T00:22:00.450Z,14.40
2022-12-18T00:25:21.371Z,15.73
2022-12-18T00:28:44.615Z,15.80
2022-12-18T00:32:06.448Z,15.45
2022-12-18T00:35:29.586Z,16.77
2022-12-18T00:38:39.398Z,15.60
2022-12-18T00:42:13.518Z,15.27
2022-12-18T00:45:35.790Z,15.73
2022-12-18T00:48:56.519Z,16.50
2022-12-18T00:52:20.564Z,16.95
2022-12-18T00:55:43.508Z,14.07
2022-12-18T00:59:09.514Z,14.83
2022-12-18T01:02:29.625Z,16.75
2022-12-18T01:05:49.425Z,15.95
2022-12-18T01:09:11.444Z,14.93
2022-12-18T01:12:34.489Z,14.57
2022-12-18T01:15:56.586Z,15.13
2022-12-18T01:19:16.487Z,15.65
2022-12-18T01:22:37.550Z,17.23
2022-12-18T01:25:53.612Z,15.95
2022-12-18T01:29:20.380Z,15.53
2022-12-18T01:32:43.578Z,15.90
2022-12-18T01:36:03.372Z,14.38
2022-12-18T01:39:21.536Z,16.73
2022-12-18T01:42:26.734Z,16.45
2022-12-18T01:45:31.712Z,16.17
2022-12-18T01:48:54.152Z,17.17
2022-12-18T01:52:15.171Z,16.40
2022-12-18T01:55:29.048Z,16.10
2022-12-18T01:58:55.992Z,16.13
2022-12-18T02:02:18.506Z,15.70
2022-12-18T02:05:37.382Z,17.53
2022-12-18T02:09:40.468Z,17.35
2022-12-18T02:13:20.401Z,16.75
2022-12-18T02:16:38.434Z,16.23
2022-12-18T02:20:19.026Z,16.47
2022-12-18T02:23:53.231Z,16.83
2022-12-18T02:27:30.304Z,16.00
2022-12-18T02:31:01.099Z,16.77
2022-12-18T02:34:20.156Z,14.65
2022-12-18T02:37:45.221Z,16.53
2022-12-18T02:41:02.343Z,17.70
2022-12-18T02:44:16.008Z,17.10
2022-12-18T02:47:44.171Z,14.68
2022-12-18T02:51:26.296Z,16.48
2022-12-18T02:54:46.517Z,16.27
2022-12-18T02:58:25.551Z,17.17
2022-12-18T03:01:57.139Z,17.67
2022-12-18T03:05:14.809Z,17.73
2022-12-18T03:08:30.593Z,19.10
2022-12-18T03:12:02.211Z,16.53
2022-12-18T03:15:34.976Z,18.90
2022-12-18T03:19:03.790Z,17.58
2022-12-18T03:22:16.534Z,18.27
2022-12-18T03:25:48.058Z,17.92
2022-12-18T03:29:14.619Z,18.23
2022-12-18T03:32:33.741Z,18.03
2022-12-18T03:35:55.644Z,17.02
2022-12-18T03:39:17.760Z,16.58
2022-12-18T03:42:51.902Z,16.15
2022-12-18T03:46:21.907Z,17.23
2022-12-18T03:49:58.357Z,15.80
2022-12-18T03:53:14.868Z,15.73
2022-12-18T03:56:23.564Z,17.27
2022-12-18T03:59:33.428Z,17.75
2022-12-18T04:02:56.822Z,15.97
2022-12-18T04:06:17.804Z,16.87
2022-12-18T04:09:35.046Z,17.67
2022-12-18T04:12:54.916Z,17.02
2022-12-18T04:16:24.717Z,17.02
2022-12-18T04:19:48.817Z,16.87
2022-12-18T04:23:10.831Z,17.20
2022-12-18T04:26:31.794Z,18.10
2022-12-18T04:29:55.848Z,16.92
2022-12-18T04:33:16.836Z,17.40
2022-12-18T04:36:32.988Z,16.63
2022-12-18T04:39:53.909Z,16.93
2022-12-18T04:43:08.910Z,18.23
2022-12-18T04:46:18.634Z,18.00
2022-12-18T04:49:28.300Z,18.50
2022-12-18T04:52:50.849Z,18.00
2022-12-18T04:56:11.449Z,17.20
2022-12-18T04:59:21.376Z,17.48
2022-12-18T05:02:30.280Z,18.52
2022-12-18T05:05:36.740Z,17.25
2022-12-18T05:08:41.222Z,17.50
2022-12-18T05:11:56.862Z,17.43
2022-12-18T05:15:26.927Z,17.15
2022-12-18T05:18:33.657Z,17.48
2022-12-18T05:21:41.807Z,17.17
2022-12-18T05:24:45.767Z,18.00
2022-12-18T05:28:04.828Z,17.20
2022-12-18T05:31:21.782Z,17.67
2022-12-18T05:34:37.801Z,17.83
2022-12-18T05:38:04.674Z,18.90
2022-12-18T05:41:36.471Z,17.93
2022-12-18T05:44:56.285Z,18.87
2022-12-18T05:48:18.693Z,18.58
2022-12-18T05:51:43.484Z,18.25
2022-12-18T05:55:00.345Z,17.92
2022-12-18T05:58:20.602Z,18.20
2022-12-18T06:01:47.745Z,17.43
2022-12-18T06:05:12.368Z,17.75
2022-12-18T06:08:15.539Z,19.08
2022-12-18T06:11:40.702Z,17.42
2022-12-18T06:14:44.903Z,18.77
2022-12-18T06:17:54.930Z,19.20
2022-12-18T06:21:01.618Z,17.85
2022-12-18T06:24:08.693Z,18.35
2022-12-18T06:27:16.209Z,16.55
2022-12-18T06:30:29.517Z,17.43
2022-12-18T06:33:51.350Z,17.43
2022-12-18T06:37:14.521Z,17.35
2022-12-18T06:40:36.542Z,18.42
2022-12-18T06:44:00.077Z,17.88
2022-12-18T06:47:16.618Z,16.77
2022-12-18T06:50:36.438Z,17.63
2022-12-18T06:53:51.207Z,18.15
2022-12-18T06:57:14.490Z,18.42
2022-12-18T07:00:50.582Z,18.00
2022-12-18T07:04:12.390Z,16.93
2022-12-18T07:07:34.326Z,17.20
2022-12-18T07:10:58.419Z,16.40
2022-12-18T07:14:20.354Z,17.48
2022-12-18T07:17:42.477Z,17.30
2022-12-18T07:21:06.507Z,18.07
2022-12-18T07:24:32.537Z,16.47
2022-12-18T07:27:46.514Z,17.77
2022-12-18T07:31:09.468Z,17.85
2022-12-18T07:34:35.363Z,16.80
2022-12-18T07:37:55.560Z,18.40
2022-12-18T07:41:16.601Z,17.53
2022-12-18T07:44:36.492Z,17.98
2022-12-18T07:47:52.635Z,17.42
2022-12-18T07:51:14.450Z,16.77
2022-12-18T07:54:35.879Z,18.33
2022-12-18T07:57:50.727Z,17.03
2022-12-18T08:01:12.436Z,17.67
2022-12-18T08:04:15.368Z,17.50
2022-12-18T08:07:29.367Z,16.60
2022-12-18T08:10:51.141Z,17.17
2022-12-18T08:14:12.128Z,17.80
2022-12-18T08:17:32.960Z,19.50
2022-12-18T08:20:55.274Z,17.02
2022-12-18T08:24:22.036Z,17.83
2022-12-18T08:27:38.990Z,17.53
2022-12-18T08:31:04.087Z,18.37
2022-12-18T08:34:15.840Z,18.25
2022-12-18T08:37:34.286Z,18.50
2022-12-18T08:40:37.441Z,18.70
2022-12-18T08:44:01.361Z,18.37
2022-12-18T08:47:08.193Z,19.70
2022-12-18T08:50:24.539Z,18.13
2022-12-18T08:53:35.624Z,20.10
2022-12-18T08:56:39.619Z,18.38
2022-12-18T08:59:46.566Z,18.33
2022-12-18T09:03:05.109Z,19.47
2022-12-18T09:06:28.137Z,20.17
2022-12-18T09:09:49.098Z,19.52
2022-12-18T09:12:59.069Z,19.23
2022-12-18T09:16:25.985Z,19.40
2022-12-18T09:19:40.378Z,18.77
2022-12-18T09:22:44.210Z,19.58
2022-12-18T09:25:47.396Z,19.02
2022-12-18T09:29:10.127Z,19.55
2022-12-18T09:32:22.651Z,16.87
2022-12-18T09:35:29.137Z,19.27
2022-12-18T09:38:34.671Z,18.35
2022-12-18T09:41:58.268Z,18.33
2022-12-18T09:45:16.343Z,18.60
2022-12-18T09:48:36.048Z,18.77
2022-12-18T09:51:58.269Z,18.43
2022-12-18T09:55:40.106Z,19.65
2022-12-18T09:58:58.670Z,18.45
2022-12-18T10:02:01.526Z,19.25
2022-12-18T10:05:43.056Z,19.70
2022-12-18T10:09:11.416Z,19.83
2022-12-18T10:13:05.086Z,17.60
2022-12-18T10:16:36.867Z,18.05
2022-12-18T10:19:42.341Z,16.85
2022-12-18T10:23:12.748Z,14.20
2022-12-18T10:26:28.953Z,15.87
2022-12-18T10:29:51.861Z,16.13
2022-12-18T10:33:12.024Z,16.85
2022-12-18T10:36:34.849Z,15.93
2022-12-18T10:40:23.672Z,18.37
2022-12-18T10:43:27.067Z,17.43
2022-12-18T10:46:30.116Z,18.52
2022-12-18T10:50:03.830Z,17.55
2022-12-18T10:53:33.818Z,16.27
2022-12-18T10:56:38.893Z,17.10
2022-12-18T11:00:02.418Z,15.87
2022-12-18T11:03:41.815Z,18.10
2022-12-18T11:07:07.919Z,17.00
2022-12-18T11:10:27.370Z,14.98
2022-12-18T11:13:39.731Z,14.43
2022-12-18T11:20:37.815Z,14.73
2022-12-18T11:23:51.753Z,13.85
2022-12-18T11:27:18.060Z,14.93
2022-12-18T11:30:38.928Z,14.03
2022-12-18T11:37:37.910Z,13.43
2022-12-18T11:40:57.146Z,13.70
2022-12-18T11:44:08.211Z,14.43
2022-12-18T11:47:45.937Z,14.40
2022-12-18T11:50:55.027Z,15.00
2022-12-18T11:54:17.997Z,15.63
2022-12-18T11:57:53.017Z,14.25
2022-12-18T12:01:04.701Z,14.57
2022-12-18T12:04:38.114Z,14.37
2022-12-18T12:08:27.316Z,14.97
2022-12-18T12:11:43.203Z,15.25
2022-12-18T12:15:25.416Z,15.15
2022-12-18T12:19:17.718Z,21.25
2022-12-18T12:22:37.585Z,14.50
2022-12-18T12:25:52.869Z,14.67
2022-12-18T12:29:20.848Z,14.77
2022-12-18T12:32:33.857Z,15.48
2022-12-18T12:36:05.468Z,14.93
2022-12-18T12:39:17.215Z,16.07
2022-12-18T12:43:01.898Z,15.60
2022-12-18T12:46:19.810Z,14.30
2022-12-18T12:49:39.042Z,14.30
2022-12-18T12:52:51.455Z,15.40
2022-12-18T12:55:56.157Z,15.33
2022-12-18T12:59:18.388Z,17.27
2022-12-18T13:02:41.502Z,16.60
2022-12-18T13:05:52.251Z,15.20
2022-12-18T13:09:01.637Z,16.27
2022-12-18T13:12:30.697Z,16.33
2022-12-18T13:15:55.890Z,17.13
2022-12-18T13:19:27.570Z,17.77
2022-12-18T13:22:50.518Z,15.40
2022-12-18T13:26:29.036Z,14.35
2022-12-18T13:29:47.002Z,18.50
2022-12-18T13:33:24.246Z,17.27
2022-12-18T13:36:33.784Z,13.93
2022-12-18T13:39:41.002Z,12.07
2022-12-18T13:43:17.551Z,13.15
2022-12-18T13:46:43.730Z,13.03
2022-12-18T13:49:49.694Z,13.37
2022-12-18T13:52:59.308Z,14.38
2022-12-18T13:56:16.060Z,14.88
2022-12-18T13:59:46.622Z,14.75
2022-12-18T14:03:07.520Z,15.03
2022-12-18T14:06:33.542Z,16.07
2022-12-18T14:10:06.491Z,15.18
2022-12-18T14:13:31.847Z,16.70
2022-12-18T14:16:44.685Z,15.50
2022-12-18T14:19:51.237Z,15.83
2022-12-18T14:22:59.160Z,16.00
2022-12-18T14:26:29.491Z,15.88
2022-12-18T14:29:32.672Z,15.35
2022-12-18T14:32:49.958Z,15.65
2022-12-18T14:36:11.383Z,15.37
2022-12-18T14:39:33.219Z,16.87
2022-12-18T14:42:58.056Z,16.95
2022-12-18T14:46:02.889Z,17.10
2022-12-18T14:49:40.913Z,17.98
2022-12-18T14:53:03.079Z,17.00
2022-12-18T14:56:25.062Z,17.60
2022-12-18T14:59:34.884Z,16.77
2022-12-18T15:02:58.303Z,19.00
2022-12-18T15:06:37.140Z,19.38
2022-12-18T15:10:05.328Z,17.77
2022-12-18T15:13:10.958Z,17.90
2022-12-18T15:16:34.110Z,16.85
2022-12-18T15:20:04.325Z,19.02
2022-12-18T15:23:25.167Z,15.80
2022-12-18T15:26:49.477Z,16.60
2022-12-18T15:30:27.515Z,15.87
2022-12-18T15:33:36.121Z,17.08
2022-12-18T15:36:52.299Z,16.27
2022-12-18T15:40:08.871Z,15.60
2022-12-18T15:43:41.363Z,16.60
2022-12-18T15:47:02.192Z,16.40
2022-12-18T15:50:12.056Z,16.98
2022-12-18T15:53:28.128Z,18.08
2022-12-18T15:57:19.046Z,18.42
2022-12-18T16:00:32.260Z,17.80
2022-12-18T16:03:52.118Z,17.77
2022-12-18T16:07:24.585Z,17.60
2022-12-18T16:10:36.573Z,18.30
2022-12-18T16:13:58.977Z,18.83
2022-12-18T16:17:16.152Z,18.53
2022-12-18T16:20:38.977Z,18.87
2022-12-18T16:23:59.200Z,19.15
2022-12-18T16:27:15.063Z,18.70
2022-12-18T16:30:47.842Z,19.20
2022-12-18T16:34:35.648Z,18.50
2022-12-18T16:37:40.613Z,36.23
2022-12-18T16:41:09.330Z,21.52
2022-12-18T16:44:16.100Z,20.00
2022-12-18T16:47:29.029Z,20.13
2022-12-18T16:50:49.215Z,20.23
2022-12-18T16:53:56.923Z,19.60
2022-12-18T16:57:00.961Z,19.73
2022-12-18T17:00:25.499Z,19.83
2022-12-18T17:03:44.764Z,18.88
2022-12-18T17:07:06.044Z,22.17
2022-12-18T17:10:21.671Z,21.23
2022-12-18T17:13:27.614Z,21.23
2022-12-18T17:16:40.574Z,21.05
2022-12-18T17:20:04.826Z,21.38
2022-12-18T17:23:15.338Z,21.73
2022-12-18T17:26:35.137Z,20.70
2022-12-18T17:29:58.877Z,21.42
2022-12-18T17:33:22.833Z,22.05
2022-12-18T17:36:42.783Z,21.17
2022-12-18T17:40:08.384Z,21.90
2022-12-18T17:43:24.171Z,23.23
2022-12-18T17:46:49.955Z,22.90
2022-12-18T17:50:21.704Z,22.65
2022-12-18T17:53:43.153Z,22.45
2022-12-18T17:56:54.359Z,22.77
2022-12-18T17:59:57.446Z,21.87
2022-12-18T18:03:01.358Z,23.38
2022-12-18T18:06:11.546Z,23.80
2022-12-18T18:09:31.726Z,22.77
2022-12-18T18:13:06.795Z,22.80
2022-12-18T18:16:18.501Z,23.53
2022-12-18T18:19:38.643Z,22.52
2022-12-18T18:22:59.760Z,24.92
2022-12-18T18:26:09.697Z,23.77
2022-12-18T18:29:24.071Z,25.83
2022-12-18T18:32:33.735Z,26.43
2022-12-18T18:35:55.536Z,26.90
2022-12-18T18:39:09.505Z,26.02
2022-12-18T18:42:33.655Z,28.63
2022-12-18T18:45:48.534Z,29.93
2022-12-18T18:49:08.033Z,30.50
2022-12-18T18:52:19.995Z,30.23
2022-12-18T18:55:42.544Z,29.05
2022-12-18T18:59:16.474Z,30.23
2022-12-18T19:02:27.401Z,29.47
2022-12-18T19:05:50.463Z,30.23
2022-12-18T19:09:24.457Z,29.83
2022-12-18T19:13:04.457Z,33.28
2022-12-18T19:16:09.815Z,31.08
2022-12-18T19:19:27.428Z,33.07
2022-12-18T19:22:55.571Z,32.80
2022-12-18T19:26:27.412Z,34.85
2022-12-18T19:29:42.463Z,31.05
2022-12-18T19:33:19.870Z,33.50
2022-12-18T19:36:29.503Z,31.87
2022-12-18T19:39:45.443Z,31.10
2022-12-18T19:43:02.524Z,31.92
2022-12-18T19:46:26.440Z,30.38
2022-12-18T19:49:53.385Z,32.17
2022-12-18T19:53:16.401Z,31.57
2022-12-18T19:56:37.347Z,34.77
2022-12-18T20:00:00.334Z,32.28
2022-12-18T20:03:25.229Z,31.00
2022-12-18T20:06:51.452Z,31.70
2022-12-18T20:10:09.225Z,32.50
2022-12-18T20:13:32.348Z,31.83
2022-12-18T20:16:52.539Z,32.00
2022-12-18T20:20:13.409Z,32.08
2022-12-18T20:23:33.299Z,30.48
2022-12-18T20:26:54.285Z,30.77
2022-12-18T20:30:04.262Z,31.30
2022-12-18T20:33:11.402Z,29.75
2022-12-18T20:36:21.321Z,29.98
2022-12-18T20:39:39.271Z,32.08
2022-12-18T20:42:56.500Z,32.23
2022-12-18T20:46:15.259Z,31.33
2022-12-18T20:49:39.552Z,32.80
2022-12-18T20:53:09.007Z,33.35
2022-12-18T20:56:32.494Z,36.03
2022-12-18T20:59:48.603Z,36.83
2022-12-18T21:03:08.440Z,35.63
2022-12-18T21:06:35.198Z,36.22
2022-12-18T21:09:55.283Z,37.15
2022-12-18T21:13:18.136Z,38.45
2022-12-18T21:16:38.433Z,38.80
2022-12-18T21:19:53.583Z,39.20
2022-12-18T21:23:05.846Z,38.90
2022-12-18T21:26:21.301Z,39.83
2022-12-18T21:29:26.955Z,41.17
2022-12-18T21:32:33.842Z,39.97
2022-12-18T21:35:36.645Z,43.27
2022-12-18T21:38:43.383Z,42.17
2022-12-18T21:42:12.852Z,42.63
2022-12-18T21:45:27.196Z,43.33
2022-12-18T21:48:48.937Z,42.27
2022-12-18T21:52:07.068Z,42.03
2022-12-18T21:55:34.358Z,42.25
2022-12-18T21:58:57.208Z,41.53
2022-12-18T22:02:02.079Z,42.08
2022-12-18T22:05:25.031Z,41.70
2022-12-18T22:09:02.046Z,41.23
2022-12-18T22:12:33.944Z,41.20
2022-12-18T22:15:47.168Z,40.72
2022-12-18T22:19:10.230Z,41.17
2022-12-18T22:22:33.981Z,42.17
2022-12-18T22:25:54.045Z,39.63
2022-12-18T22:29:29.655Z,42.03
2022-12-18T22:32:41.519Z,39.03
2022-12-18T22:35:54.055Z,39.30
2022-12-18T22:39:16.987Z,40.17
2022-12-18T22:42:38.010Z,39.77
2022-12-18T22:45:57.944Z,40.28
2022-12-18T22:49:07.781Z,40.20
2022-12-18T22:52:15.597Z,40.50
2022-12-18T22:55:26.133Z,38.60
2022-12-18T22:58:41.874Z,41.23
2022-12-18T23:02:05.104Z,39.65
2022-12-18T23:05:19.195Z,37.25
2022-12-18T23:08:22.378Z,37.42
2022-12-18T23:11:32.039Z,36.50
2022-12-18T23:14:38.277Z,35.37
2022-12-18T23:17:41.104Z,37.70
2022-12-18T23:20:48.730Z,33.22
2022-12-18T23:24:06.572Z,34.15
2022-12-18T23:27:28.548Z,32.63
2022-12-18T23:30:50.591Z,33.50
2022-12-18T23:34:13.639Z,31.50
2022-12-18T23:37:58.302Z,30.38
2022-12-18T23:40:59.835Z,30.27
2022-12-18T23:44:21.570Z,30.53
2022-12-18T23:47:37.994Z,29.43
2022-12-18T23:50:57.740Z,29.13
2022-12-18T23:54:32.670Z,28.20
2022-12-18T23:57:50.695Z,27.73
